Time;durP1;ratioP1;P1;durP2;ratioP2;P2;SDS_P1;SDS_P2;PMS_P1;PMS_P2;Temp;Humidity;BMP_temperature;BMP_pressure;BME280_temperature;BME280_humidity;BME280_pressure;Samples;Min_cycle;Max_cycle;Signal;HPM_P1;HPM_P2
2021/10/08 00:01:38;;;;;;;;;;;;;;;9.17;79.79;102875.53;5086933;28;19969;-69
2021/10/08 00:04:07;;;;;;;;;;;;;;;9.11;79.51;102878.38;5088403;28;19973;-69
2021/10/08 00:06:35;;;;;;;;;;;;;;;9.09;79.32;102877.56;5085831;28;19972;-69
2021/10/08 00:09:03;;;;;;;;;;;;;;;9.00;79.88;102876.88;5088749;28;19974;-70
2021/10/08 00:11:31;;;;;;;;;;;;;;;9.00;79.94;102879.56;5089970;28;20075;-70
2021/10/08 00:14:00;;;;;;;;;;;;;;;9.00;79.25;102874.22;5086543;28;19995;-69
2021/10/08 00:16:28;;;;;;;;;;;;;;;8.94;79.64;102874.38;5090015;28;20291;-69
2021/10/08 00:18:56;;;;;;;;;;;;;;;8.91;79.09;102877.16;5089898;28;19980;-69
2021/10/08 00:21:25;;;;;;;;;;;;;;;8.87;79.09;102878.13;5090188;28;19972;-70
2021/10/08 00:23:53;;;;;;;;;;;;;;;8.81;79.03;102872.94;5089530;28;19957;-69
2021/10/08 00:26:21;;;;;;;;;;;;;;;8.80;79.36;102875.66;5089985;28;19979;-68
2021/10/08 00:28:49;;;;;;;;;;;;;;;8.76;79.30;102880.19;5089669;28;19972;-68
2021/10/08 00:31:16;;;;;;;;;;;;;;;8.79;79.24;102885.47;5089679;28;20383;-69
2021/10/08 00:33:44;;;;;;;;;;;;;;;8.78;79.53;102883.72;5089508;28;19979;-69
2021/10/08 00:36:13;;;;;;;;;;;;;;;8.79;79.99;102882.81;5071544;28;20066;-69
2021/10/08 00:38:42;;;;;;;;;;;;;;;8.75;79.95;102883.81;5089442;28;19968;-69
2021/10/08 00:41:10;;;;;;;;;;;;;;;8.75;79.51;102885.59;5089982;28;19980;-69
2021/10/08 00:43:38;;;;;;;;;;;;;;;8.75;79.69;102883.81;5089292;28;20409;-69
2021/10/08 00:46:06;;;;;;;;;;;;;;;8.70;79.47;102886.59;5089559;28;19992;-69
2021/10/08 00:48:34;;;;;;;;;;;;;;;8.69;79.44;102892.88;5089047;28;20021;-69
2021/10/08 00:51:02;;;;;;;;;;;;;;;8.65;79.34;102890.31;5089557;28;20424;-69
2021/10/08 00:53:30;;;;;;;;;;;;;;;8.62;79.61;102885.03;5089087;28;19984;-68
2021/10/08 00:56:02;;;;;;;;;;;;;;;8.60;79.77;102889.56;5089524;28;19975;-68
2021/10/08 00:58:30;;;;;;;;;;;;;;;8.53;79.33;102888.81;5088947;28;19972;-68
2021/10/08 01:00:58;;;;;;;;;;;;;;;8.50;79.36;102888.00;5086545;28;20231;-68
2021/10/08 01:03:26;;;;;;;;;;;;;;;8.49;79.96;102881.78;5088765;28;19972;-69
2021/10/08 01:05:54;;;;;;;;;;;;;;;8.48;79.96;102884.50;5089045;28;20011;-68
2021/10/08 01:08:22;;;;;;;;;;;;;;;8.47;79.53;102888.97;5066942;28;20428;-68
2021/10/08 01:10:51;;;;;;;;;;;;;;;8.48;79.46;102893.41;5088104;28;20632;-69
2021/10/08 01:13:21;;;;;;;;;;;;;;;8.47;79.74;102880.94;5058092;28;19976;-69
2021/10/08 01:15:49;;;;;;;;;;;;;;;8.50;79.67;102888.00;5088408;28;20158;-69
2021/10/08 01:18:17;;;;;;;;;;;;;;;8.49;79.80;102887.13;5088321;28;20058;-69
2021/10/08 01:20:46;;;;;;;;;;;;;;;8.50;80.08;102888.00;5087488;28;20034;-69
2021/10/08 01:23:19;;;;;;;;;;;;;;;8.52;80.03;102881.69;5071058;28;19976;-75
2021/10/08 01:25:52;;;;;;;;;;;;;;;8.52;80.17;102881.69;5088821;28;19979;-69
2021/10/08 01:28:34;;;;;;;;;;;;;;;8.52;79.64;102886.16;5070435;28;20007;-68
2021/10/08 01:31:07;;;;;;;;;;;;;;;8.47;79.82;102877.38;5077869;28;19977;-69
2021/10/08 01:33:55;;;;;;;;;;;;;;;8.42;80.30;102882.84;5088124;28;20350;-68
2021/10/08 01:36:26;;;;;;;;;;;;;;;8.39;80.41;102878.44;5087607;28;19973;-68
2021/10/08 01:38:59;;;;;;;;;;;;;;;8.42;79.82;102873.94;5087474;28;19982;-68
2021/10/08 01:41:30;;;;;;;;;;;;;;;8.43;80.00;102870.34;5070847;28;19979;-69
2021/10/08 01:43:58;;;;;;;;;;;;;;;8.40;79.66;102877.53;5070759;28;19968;-68
2021/10/08 01:46:26;;;;;;;;;;;;;;;8.32;79.87;102871.47;5077330;28;20347;-68
2021/10/08 01:48:55;;;;;;;;;;;;;;;8.26;80.59;102876.94;5070253;28;19975;-68
2021/10/08 01:51:29;;;;;;;;;;;;;;;8.23;80.59;102874.34;5070518;28;19976;-68
2021/10/08 01:53:57;;;;;;;;;;;;;;;8.27;80.10;102873.38;5070524;28;20063;-68
2021/10/08 01:56:27;;;;;;;;;;;;;;;8.30;80.24;102875.97;5070609;28;20488;-68
2021/10/08 01:59:01;;;;;;;;;;;;;;;8.33;80.91;102881.28;5070466;28;20084;-68
2021/10/08 02:01:32;;;;;;;;;;;;;;;8.31;82.25;102877.72;5070356;28;19989;-68
2021/10/08 02:04:05;;;;;;;;;;;;;;;8.37;81.57;102882.09;5070360;28;20055;-68
2021/10/08 02:06:35;;;;;;;;;;;;;;;8.38;81.35;102884.72;5070275;28;19972;-68
2021/10/08 02:09:04;;;;;;;;;;;;;;;8.38;81.37;102884.72;5072778;28;19980;-68
2021/10/08 02:11:34;;;;;;;;;;;;;;;8.40;80.69;102882.88;5072821;28;19972;-68
2021/10/08 02:14:04;;;;;;;;;;;;;;;8.39;80.50;102883.81;5074236;28;19983;-69
2021/10/08 02:16:32;;;;;;;;;;;;;;;8.37;80.45;102877.63;5090944;28;19979;-69
2021/10/08 02:19:05;;;;;;;;;;;;;;;8.39;80.69;102883.81;5078211;28;20348;-69
2021/10/08 02:21:38;;;;;;;;;;;;;;;8.39;80.51;102881.13;5074005;28;20041;-69
2021/10/08 02:24:08;;;;;;;;;;;;;;;8.39;80.16;102889.16;5074022;28;19976;-70
2021/10/08 02:26:42;;;;;;;;;;;;;;;8.35;80.18;102884.81;5073965;28;19973;-69
2021/10/08 02:29:13;;;;;;;;;;;;;;;8.25;81.63;102890.34;5074237;28;19972;-69
2021/10/08 02:31:42;;;;;;;;;;;;;;;8.23;80.96;102889.50;5073615;28;19968;-69
2021/10/08 02:34:10;;;;;;;;;;;;;;;8.24;80.69;102885.91;5083913;28;19976;-69
2021/10/08 02:36:39;;;;;;;;;;;;;;;8.24;80.62;102886.78;5092243;28;19979;-69
2021/10/08 02:39:07;;;;;;;;;;;;;;;8.23;80.15;102895.75;5073905;28;20547;-69
2021/10/08 02:41:35;;;;;;;;;;;;;;;8.20;80.07;102895.81;5073308;28;19992;-69
2021/10/08 02:44:04;;;;;;;;;;;;;;;8.15;80.74;102897.72;5073694;28;20004;-75
2021/10/08 02:46:32;;;;;;;;;;;;;;;8.14;80.66;102903.13;5073368;28;19992;-75
2021/10/08 02:49:00;;;;;;;;;;;;;;;8.16;80.69;102901.28;5090663;28;19969;-76
2021/10/08 02:51:28;;;;;;;;;;;;;;;8.19;80.07;102901.22;5091955;28;20008;-75
2021/10/08 02:53:57;;;;;;;;;;;;;;;8.21;80.38;102905.59;5073055;28;20468;-76
2021/10/08 02:56:25;;;;;;;;;;;;;;;8.17;80.36;102905.72;5073596;28;20035;-75
2021/10/08 02:58:53;;;;;;;;;;;;;;;8.10;79.83;102904.97;5091281;28;20458;-75
2021/10/08 03:01:22;;;;;;;;;;;;;;;8.01;80.71;102915.91;5083532;28;20518;-76
2021/10/08 03:03:50;;;;;;;;;;;;;;;7.57;80.40;102850.84;5073123;28;19972;-75
2021/10/08 03:06:18;;;;;;;;;;;;;;;7.95;80.55;102916.88;5073385;28;19969;-76
2021/10/08 03:08:48;;;;;;;;;;;;;;;7.95;80.23;102916.88;5091335;28;20095;-75
2021/10/08 03:11:18;;;;;;;;;;;;;;;7.96;80.64;102923.13;5091609;28;19969;-75
2021/10/08 03:13:46;;;;;;;;;;;;;;;7.96;80.37;102923.13;5073072;28;19972;-75
2021/10/08 03:16:14;;;;;;;;;;;;;;;7.96;80.12;102926.72;5091327;28;20430;-75
2021/10/08 03:18:42;;;;;;;;;;;;;;;7.94;80.15;102924.94;5080045;28;20008;-76
2021/10/08 03:21:10;;;;;;;;;;;;;;;7.91;80.11;102925.91;5072808;28;19988;-75
2021/10/08 03:23:39;;;;;;;;;;;;;;;7.88;80.65;102914.38;5088981;28;19983;-75
2021/10/08 03:26:08;;;;;;;;;;;;;;;7.88;80.55;102917.94;5072617;28;19980;-76
2021/10/08 03:28:37;;;;;;;;;;;;;;;7.88;80.42;102930.44;5090182;28;20026;-76
2021/10/08 03:31:05;;;;;;;;;;;;;;;7.90;80.04;102928.59;5090213;28;20003;-76
2021/10/08 03:33:33;;;;;;;;;;;;;;;7.91;80.22;102933.03;5072606;28;20365;-76
2021/10/08 03:36:01;;;;;;;;;;;;;;;7.92;80.31;102924.09;5072665;28;20461;-76
2021/10/08 03:38:31;;;;;;;;;;;;;;;7.95;80.57;102924.03;5090944;28;19969;-76
2021/10/08 03:41:09;;;;;;;;;;;;;;;7.97;80.43;102925.78;5072865;28;19984;-76
2021/10/08 03:43:40;;;;;;;;;;;;;;;7.95;80.53;102924.91;5090470;28;19972;-76
2021/10/08 03:46:08;;;;;;;;;;;;;;;7.91;80.42;102925.03;5090811;28;20019;-75
2021/10/08 03:51:23;;;;;;;;;;;;;;;7.88;80.43;102933.13;5072773;28;19972;-76
2021/10/08 03:53:51;;;;;;;;;;;;;;;7.90;80.42;102929.50;5090006;28;20014;-76
2021/10/08 03:56:19;;;;;;;;;;;;;;;7.95;80.25;102932.06;5088815;28;19983;-69
2021/10/08 03:58:48;;;;;;;;;;;;;;;7.98;80.75;102930.22;5087662;28;20354;-69
2021/10/08 04:01:17;;;;;;;;;;;;;;;7.94;81.32;102932.97;5068942;28;20074;-69
2021/10/08 04:03:46;;;;;;;;;;;;;;;7.97;81.27;102935.63;5067421;28;19977;-74
2021/10/08 04:06:14;;;;;;;;;;;;;;;8.00;81.04;102930.19;5068507;28;19973;-75
2021/10/08 04:08:43;;;;;;;;;;;;;;;8.00;82.75;102931.06;5086551;28;20343;-75
2021/10/08 04:11:11;;;;;;;;;;;;;;;8.06;82.81;102935.41;5065066;28;20003;-75
2021/10/08 04:13:39;;;;;;;;;;;;;;;8.10;82.27;102935.31;5066180;28;19976;-76
2021/10/08 04:16:09;;;;;;;;;;;;;;;8.15;82.78;102934.31;5081509;28;20415;-76
2021/10/08 04:18:37;;;;;;;;;;;;;;;8.20;82.32;102937.75;5084228;28;20004;-76
2021/10/08 04:21:07;;;;;;;;;;;;;;;8.26;81.86;102940.28;5059950;28;20381;-76
2021/10/08 04:23:35;;;;;;;;;;;;;;;8.30;81.14;102944.69;5065575;28;20685;-76
2021/10/08 04:26:04;;;;;;;;;;;;;;;8.34;81.11;102947.28;5067516;28;20013;-76
2021/10/08 04:28:32;;;;;;;;;;;;;;;8.33;81.16;102945.53;5067971;28;20603;-76
2021/10/08 04:31:01;;;;;;;;;;;;;;;8.35;81.07;102946.38;5067601;28;19995;-76
2021/10/08 04:33:34;;;;;;;;;;;;;;;8.33;81.23;102940.19;5067062;28;20340;-76
2021/10/08 04:36:02;;;;;;;;;;;;;;;8.36;80.71;102941.91;5071415;28;19968;-76
2021/10/08 04:38:35;;;;;;;;;;;;;;;8.35;81.73;102946.38;5066149;28;20354;-76
2021/10/08 04:41:07;;;;;;;;;;;;;;;8.43;81.23;102956.03;5068064;28;19991;-75
2021/10/08 04:43:37;;;;;;;;;;;;;;;8.47;81.10;102950.56;5065793;28;20026;-76
2021/10/08 04:46:06;;;;;;;;;;;;;;;8.48;80.65;102949.63;5067087;28;20062;-75
2021/10/08 04:48:36;;;;;;;;;;;;;;;8.49;80.51;102951.41;5066515;28;20000;-76
2021/10/08 04:51:05;;;;;;;;;;;;;;;8.49;81.39;102945.16;5064883;28;19969;-76
2021/10/08 04:53:32;;;;;;;;;;;;;;;8.46;81.54;102947.91;5085845;28;19975;-76
2021/10/08 04:56:00;;;;;;;;;;;;;;;8.40;81.60;102952.50;5064777;28;20063;-75
2021/10/08 04:58:30;;;;;;;;;;;;;;;8.33;81.93;102950.88;5064051;28;19976;-75
2021/10/08 05:01:00;;;;;;;;;;;;;;;8.32;82.07;102953.56;5064260;28;19968;-75
2021/10/08 05:03:28;;;;;;;;;;;;;;;8.29;81.63;102951.84;5058473;28;20014;-75
2021/10/08 05:05:57;;;;;;;;;;;;;;;8.35;81.48;102954.41;5074141;28;20153;-74
2021/10/08 05:08:36;;;;;;;;;;;;;;;8.42;81.46;102954.25;5067044;28;20030;-74
2021/10/08 05:11:05;;;;;;;;;;;;;;;8.47;81.17;102960.38;5069056;28;19987;-74
2021/10/08 05:13:34;;;;;;;;;;;;;;;8.52;81.00;102953.13;5068636;28;20253;-75
2021/10/08 05:16:03;;;;;;;;;;;;;;;8.57;80.59;102960.16;5070390;28;19969;-75
2021/10/08 05:18:31;;;;;;;;;;;;;;;8.59;80.87;102952.97;5070450;28;19979;-74
2021/10/08 05:21:00;;;;;;;;;;;;;;;8.64;80.44;102960.88;5063302;28;19949;-76
2021/10/08 05:23:28;;;;;;;;;;;;;;;8.68;80.31;102954.53;5066444;28;20009;-75
2021/10/08 05:26:05;;;;;;;;;;;;;;;8.73;80.29;102963.31;5085489;28;20055;-75
2021/10/08 05:28:33;;;;;;;;;;;;;;;8.79;80.04;102970.31;5074283;28;20000;-75
2021/10/08 05:31:02;;;;;;;;;;;;;;;8.83;80.02;102967.53;5070744;28;19973;-74
2021/10/08 05:33:30;;;;;;;;;;;;;;;8.87;79.95;102971.88;5070830;28;19983;-75
2021/10/08 05:35:58;;;;;;;;;;;;;;;8.89;79.97;102966.53;5087232;28;20180;-74
2021/10/08 05:38:29;;;;;;;;;;;;;;;8.91;80.05;102980.75;5070434;28;20063;-75
2021/10/08 05:40:57;;;;;;;;;;;;;;;8.90;80.71;102990.59;5070496;28;20202;-74
2021/10/08 05:43:25;;;;;;;;;;;;;;;8.87;81.04;102985.28;5070860;28;19988;-75
2021/10/08 05:45:57;;;;;;;;;;;;;;;8.87;81.10;102989.78;5069643;28;19973;-74
2021/10/08 05:48:25;;;;;;;;;;;;;;;8.87;80.92;102993.31;5070800;28;19979;-75
2021/10/08 05:50:55;;;;;;;;;;;;;;;8.87;81.21;102987.97;5070241;28;19983;-74
2021/10/08 05:53:23;;;;;;;;;;;;;;;8.89;81.53;102983.47;5070620;28;20462;-74
2021/10/08 05:55:52;;;;;;;;;;;;;;;8.89;81.73;102991.53;5088415;28;20442;-74
2021/10/08 05:58:20;;;;;;;;;;;;;;;8.90;81.90;102989.72;5077260;28;19972;-75
2021/10/08 06:00:48;;;;;;;;;;;;;;;8.90;83.33;102995.97;5070121;28;19968;-75
2021/10/08 06:03:16;;;;;;;;;;;;;;;8.93;84.51;102990.53;5087251;28;19988;-75
2021/10/08 06:05:45;;;;;;;;;;;;;;;8.97;84.41;102997.56;5072781;28;20059;-75
2021/10/08 06:08:13;;;;;;;;;;;;;;;9.02;84.77;103000.13;5070354;28;19976;-76
2021/10/08 06:10:46;;;;;;;;;;;;;;;9.03;85.04;103005.44;5070118;28;20088;-75
2021/10/08 06:13:17;;;;;;;;;;;;;;;9.03;84.58;103018.84;5070568;28;19972;-76
2021/10/08 06:15:44;;;;;;;;;;;;;;;9.06;83.79;103006.28;5088096;28;19979;-76
2021/10/08 06:18:12;;;;;;;;;;;;;;;9.11;83.51;103020.44;5070415;28;19979;-76
2021/10/08 06:20:42;;;;;;;;;;;;;;;9.15;82.51;103022.13;5069799;28;20350;-75
2021/10/08 06:23:13;;;;;;;;;;;;;;;9.20;82.48;103021.13;5088468;28;20007;-75
2021/10/08 06:25:41;;;;;;;;;;;;;;;9.26;81.96;103023.63;5082518;28;20487;-75
2021/10/08 06:28:11;;;;;;;;;;;;;;;9.32;82.29;103019.91;5072926;28;20026;-75
2021/10/08 06:30:41;;;;;;;;;;;;;;;9.07;81.77;102966.03;5080548;28;19972;-75
2021/10/08 06:33:09;;;;;;;;;;;;;;;9.51;82.89;103025.69;5070047;28;20096;-76
2021/10/08 06:35:38;;;;;;;;;;;;;;;9.29;82.60;102966.38;5087015;28;20038;-75
2021/10/08 06:38:07;;;;;;;;;;;;;;;9.69;82.53;103024.28;5069925;28;19972;-75
2021/10/08 06:40:35;;;;;;;;;;;;;;;9.71;82.96;103027.81;5070100;28;20031;-75
2021/10/08 06:43:08;;;;;;;;;;;;;;;9.85;82.46;103029.22;5086647;28;19988;-74
2021/10/08 06:45:44;;;;;;;;;;;;;;;9.94;83.55;103030.75;5056847;28;19978;-74
2021/10/08 06:48:15;;;;;;;;;;;;;;;9.99;83.75;103030.63;5088067;28;20413;-75
2021/10/08 06:50:46;;;;;;;;;;;;;;;10.04;84.34;103045.66;5082944;28;20023;-75
2021/10/08 06:53:16;;;;;;;;;;;;;;;10.09;84.37;103042.84;5070028;28;20075;-75
2021/10/08 06:55:47;;;;;;;;;;;;;;;10.22;84.09;103042.50;5055542;28;19978;-75
2021/10/08 06:58:19;;;;;;;;;;;;;;;10.36;83.83;103043.88;5071933;28;19976;-75
2021/10/08 07:00:52;;;;;;;;;;;;;;;10.41;84.43;103053.59;5077481;28;20025;-75
2021/10/08 07:03:21;;;;;;;;;;;;;;;10.56;84.78;103052.22;5073497;28;20004;-75
2021/10/08 07:05:49;;;;;;;;;;;;;;;10.66;84.49;103053.69;5073122;28;19973;-75
2021/10/08 07:08:17;;;;;;;;;;;;;;;10.79;84.67;103065.84;5073489;28;19973;-74
2021/10/08 07:10:45;;;;;;;;;;;;;;;10.91;85.15;103069.06;5072821;28;20034;-74
2021/10/08 07:13:14;;;;;;;;;;;;;;;11.01;85.08;103060.63;5091361;28;19969;-75
2021/10/08 07:15:42;;;;;;;;;;;;;;;11.10;84.96;103065.75;5091083;28;19987;-75
2021/10/08 07:18:15;;;;;;;;;;;;;;;11.25;84.96;103069.72;5091117;28;20344;-75
2021/10/08 07:20:45;;;;;;;;;;;;;;;11.35;85.03;103071.19;5090619;28;19973;-75
2021/10/08 07:23:13;;;;;;;;;;;;;;;11.54;83.92;103062.50;5091146;28;19995;-75
2021/10/08 07:25:41;;;;;;;;;;;;;;;11.77;83.36;103065.25;5091062;28;20239;-75
2021/10/08 07:28:09;;;;;;;;;;;;;;;11.87;83.66;103064.03;5090964;28;19976;-75
2021/10/08 07:30:37;;;;;;;;;;;;;;;12.11;83.17;103067.66;5090810;28;20378;-74
2021/10/08 07:33:04;;;;;;;;;;;;;;;12.28;82.18;103064.34;5090768;28;19999;-75
2021/10/08 07:35:34;;;;;;;;;;;;;;;12.42;81.37;103070.06;5091003;28;19972;-74
2021/10/08 07:38:01;;;;;;;;;;;;;;;12.59;81.03;103075.72;5072278;28;19979;-74
2021/10/08 07:40:30;;;;;;;;;;;;;;;12.75;80.10;103074.16;5090843;28;19972;-74
2021/10/08 07:42:58;;;;;;;;;;;;;;;12.88;79.02;103071.00;5090336;28;20359;-75
2021/10/08 07:45:26;;;;;;;;;;;;;;;13.03;78.92;103067.66;5090857;28;19979;-75
2021/10/08 07:47:53;;;;;;;;;;;;;;;12.97;78.24;103070.63;5090153;28;20378;-74
2021/10/08 07:50:21;;;;;;;;;;;;;;;13.07;78.80;103072.00;5090416;28;19964;-73
2021/10/08 07:52:50;;;;;;;;;;;;;;;13.17;77.98;103076.13;5090290;28;20065;-75
2021/10/08 07:55:18;;;;;;;;;;;;;;;13.27;77.40;103068.53;5090297;28;20468;-75
2021/10/08 07:57:46;;;;;;;;;;;;;;;13.28;77.87;103071.16;5088189;28;19969;-74
2021/10/08 08:00:14;;;;;;;;;;;;;;;13.33;77.28;103071.84;5088430;28;19977;-74
2021/10/08 08:02:42;;;;;;;;;;;;;;;13.34;76.00;103073.59;5088227;28;19968;-74
2021/10/08 08:05:10;;;;;;;;;;;;;;;13.43;76.98;103075.00;5088680;28;20377;-74
2021/10/08 08:07:38;;;;;;;;;;;;;;;13.43;76.89;103075.00;5088018;28;19975;-74
2021/10/08 08:10:09;;;;;;;;;;;;;;;13.53;76.38;103070.13;5088787;28;19973;-74
2021/10/08 08:12:37;;;;;;;;;;;;;;;13.62;76.26;103072.41;5088830;28;20003;-74
2021/10/08 08:15:06;;;;;;;;;;;;;;;13.65;75.13;103072.28;5088764;28;19973;-74
2021/10/08 08:17:34;;;;;;;;;;;;;;;13.65;75.39;103075.88;5088643;28;19950;-69
2021/10/08 08:20:07;;;;;;;;;;;;;;;13.61;75.35;103067.97;5085862;28;19979;-75
2021/10/08 08:22:35;;;;;;;;;;;;;;;13.72;75.29;103076.47;5090132;28;19983;-70
2021/10/08 08:25:03;;;;;;;;;;;;;;;13.65;74.56;103075.88;5090527;28;19969;-70
2021/10/08 08:27:32;;;;;;;;;;;;;;;13.74;74.35;103071.00;5090379;28;19983;-69
2021/10/08 08:30:02;;;;;;;;;;;;;;;13.71;74.50;103076.53;5088660;28;19969;-70
2021/10/08 08:32:31;;;;;;;;;;;;;;;13.77;74.82;103071.75;5089794;28;20437;-69
2021/10/08 08:34:59;;;;;;;;;;;;;;;13.79;74.05;103069.88;5089417;28;19968;-70
2021/10/08 08:37:27;;;;;;;;;;;;;;;13.86;73.37;103063.25;5089812;28;19973;-70
2021/10/08 08:39:55;;;;;;;;;;;;;;;13.87;73.70;103065.00;5088971;28;19980;-70
2021/10/08 08:42:23;;;;;;;;;;;;;;;13.77;73.78;103069.03;5089805;28;19980;-70
2021/10/08 08:44:52;;;;;;;;;;;;;;;13.74;73.64;103068.28;5089283;28;19995;-70
2021/10/08 08:47:21;;;;;;;;;;;;;;;13.76;74.32;103067.28;5089550;28;19992;-70
2021/10/08 08:49:49;;;;;;;;;;;;;;;13.88;73.50;103063.19;5089289;28;20420;-69
2021/10/08 08:52:18;;;;;;;;;;;;;;;13.74;73.50;103057.50;5089243;28;19968;-70
2021/10/08 08:54:46;;;;;;;;;;;;;;;13.77;74.06;103060.06;5089181;28;19973;-69
2021/10/08 08:57:19;;;;;;;;;;;;;;;13.82;74.18;103060.75;5089519;28;19974;-69
2021/10/08 08:59:58;;;;;;;;;;;;;;;13.88;73.15;103063.19;5088981;28;19979;-69
2021/10/08 09:02:27;;;;;;;;;;;;;;;13.79;73.96;103060.91;5089199;28;19979;-69
2021/10/08 09:04:55;;;;;;;;;;;;;;;13.77;74.42;103058.22;5088708;28;20405;-68
2021/10/08 09:07:23;;;;;;;;;;;;;;;13.81;74.18;103059.88;5088932;28;19980;-69
2021/10/08 09:09:51;;;;;;;;;;;;;;;13.93;73.30;103064.72;5088630;28;19972;-69
2021/10/08 09:12:20;;;;;;;;;;;;;;;13.94;73.09;103065.59;5070906;28;20366;-69
2021/10/08 09:14:58;;;;;;;;;;;;;;;13.85;73.70;103066.91;5070646;28;19972;-69
2021/10/08 09:17:27;;;;;;;;;;;;;;;13.76;73.91;103064.59;5089289;28;20067;-70
2021/10/08 09:19:56;;;;;;;;;;;;;;;13.97;72.20;103062.75;5087970;28;20017;-69
2021/10/08 09:22:25;;;;;;;;;;;;;;;14.01;72.23;103063.50;5088839;28;20417;-70
2021/10/08 09:24:54;;;;;;;;;;;;;;;14.08;72.38;103057.78;5088296;28;20448;-70
2021/10/08 09:27:23;;;;;;;;;;;;;;;14.11;72.23;103059.47;5088983;28;19983;-70
2021/10/08 09:29:52;;;;;;;;;;;;;;;14.11;73.01;103057.63;5088083;28;19979;-69
2021/10/08 09:32:20;;;;;;;;;;;;;;;14.15;72.61;103069.19;5088722;28;20074;-70
2021/10/08 09:35:03;;;;;;;;;;;;;;;14.25;71.96;103065.97;5074194;28;19973;-70
2021/10/08 09:37:31;;;;;;;;;;;;;;;14.29;71.36;103059.47;5088869;28;19994;-68
2021/10/08 09:39:59;;;;;;;;;;;;;;;14.37;70.26;103059.13;5088565;28;20007;-68
2021/10/08 09:42:32;;;;;;;;;;;;;;;14.38;71.28;103058.16;5088770;28;20083;-69
2021/10/08 09:45:00;;;;;;;;;;;;;;;14.40;70.76;103064.41;5088208;28;19993;-68
2021/10/08 09:47:29;;;;;;;;;;;;;;;14.42;70.96;103062.50;5088660;28;19999;-68
2021/10/08 09:50:08;;;;;;;;;;;;;;;14.47;71.39;103048.81;5088088;28;19995;-68
2021/10/08 09:52:36;;;;;;;;;;;;;;;14.54;70.66;103050.25;5070534;28;19995;-69
2021/10/08 09:55:05;;;;;;;;;;;;;;;14.54;71.60;103052.97;5069798;28;19983;-69
2021/10/08 09:57:55;;;;;;;;;;;;;;;14.66;70.64;103048.78;5088688;28;20076;-69
2021/10/08 10:00:35;;;;;;;;;;;;;;;14.68;70.27;103052.28;5070210;28;19961;-69
2021/10/08 10:03:03;;;;;;;;;;;;;;;14.67;70.62;103045.13;5070033;28;20064;-69
2021/10/08 10:05:33;;;;;;;;;;;;;;;14.76;71.57;103051.00;5088335;28;19988;-69
2021/10/08 10:08:01;;;;;;;;;;;;;;;14.86;70.89;103051.41;5088142;28;19973;-73
2021/10/08 10:10:29;;;;;;;;;;;;;;;14.87;71.25;103048.63;5088308;28;20474;-74
2021/10/08 10:12:59;;;;;;;;;;;;;;;15.00;71.46;103046.22;5088100;28;20172;-74
2021/10/08 10:15:28;;;;;;;;;;;;;;;15.04;70.81;103050.53;5088439;28;19987;-74
2021/10/08 10:17:57;;;;;;;;;;;;;;;15.23;69.71;103051.34;5087951;28;20055;-73
2021/10/08 10:20:26;;;;;;;;;;;;;;;15.31;69.94;103042.00;5088546;28;19973;-73
2021/10/08 10:22:55;;;;;;;;;;;;;;;15.33;70.45;103040.06;5087909;28;19995;-73
2021/10/08 10:25:23;;;;;;;;;;;;;;;15.44;69.56;103034.97;5088126;28;19988;-73
2021/10/08 10:27:51;;;;;;;;;;;;;;;15.53;69.67;103029.06;5087901;28;19973;-73
2021/10/08 10:30:20;;;;;;;;;;;;;;;15.57;69.60;103036.09;5083433;28;19984;-73
2021/10/08 10:32:48;;;;;;;;;;;;;;;15.69;69.09;103030.06;5090791;28;19949;-73
2021/10/08 10:35:35;;;;;;;;;;;;;;;15.70;68.37;103023.69;5092019;28;20276;-73
2021/10/08 10:38:21;;;;;;;;;;;;;;;15.75;68.86;103028.88;5091577;28;19972;-73
2021/10/08 10:41:03;;;;;;;;;;;;;;;15.70;69.06;103023.69;5091584;28;19976;-73
2021/10/08 10:43:33;;;;;;;;;;;;;;;15.75;69.70;103016.19;5092010;28;20050;-73
2021/10/08 10:46:21;;;;;;;;;;;;;;;15.79;69.83;103012.38;5091452;28;19996;-73
2021/10/08 10:49:08;;;;;;;;;;;;;;;15.83;69.59;103013.94;5091480;28;20004;-72
2021/10/08 10:51:36;;;;;;;;;;;;;;;16.03;69.02;103010.19;5091644;28;19994;-73
2021/10/08 10:54:05;;;;;;;;;;;;;;;16.02;68.75;103008.44;5091332;28;19979;-73
2021/10/08 10:56:42;;;;;;;;;;;;;;;16.14;68.46;103006.88;5091615;28;19973;-69
2021/10/08 10:59:25;;;;;;;;;;;;;;;16.30;67.43;103015.94;5076188;28;20423;-69
2021/10/08 11:02:14;;;;;;;;;;;;;;;16.29;68.14;103014.19;5072956;28;20003;-70
2021/10/08 11:04:43;;;;;;;;;;;;;;;16.37;68.50;103019.16;5091375;28;19984;-70
2021/10/08 11:07:12;;;;;;;;;;;;;;;16.48;67.63;103026.69;5091332;28;20447;-70
2021/10/08 11:09:42;;;;;;;;;;;;;;;16.59;67.42;103013.41;5091348;28;19983;-70
2021/10/08 11:12:29;;;;;;;;;;;;;;;16.72;67.39;103009.06;5091675;28;20501;-70
2021/10/08 11:15:15;;;;;;;;;;;;;;;16.68;65.65;103008.38;5090911;28;19979;-70
2021/10/08 11:17:46;;;;;;;;;;;;;;;16.77;66.86;103013.25;5090846;28;19968;-74
2021/10/08 11:20:29;;;;;;;;;;;;;;;16.80;65.50;103012.19;5091108;28;19983;-74
2021/10/08 11:22:58;;;;;;;;;;;;;;;17.01;66.84;103012.81;5089814;28;19975;-74
2021/10/08 11:25:28;;;;;;;;;;;;;;;17.06;65.15;103016.13;5091005;28;20451;-74
2021/10/08 11:27:56;;;;;;;;;;;;;;;17.10;66.31;103009.53;5090532;28;20342;-69
2021/10/08 11:30:25;;;;;;;;;;;;;;;17.29;66.13;103006.63;5091148;28;19972;-70
2021/10/08 11:32:54;;;;;;;;;;;;;;;17.35;66.08;103006.25;5090555;28;19976;-70
2021/10/08 11:35:29;;;;;;;;;;;;;;;17.33;63.38;103011.78;5077095;28;19979;-69
2021/10/08 11:37:57;;;;;;;;;;;;;;;17.52;65.13;103010.69;5090506;28;19972;-67
2021/10/08 11:40:28;;;;;;;;;;;;;;;17.66;64.10;103000.69;5090693;28;19973;-68
2021/10/08 11:43:01;;;;;;;;;;;;;;;17.77;63.58;103010.97;5089728;28;20066;-69
2021/10/08 11:45:37;;;;;;;;;;;;;;;17.85;63.98;103013.19;5090622;28;19996;-68
2021/10/08 11:48:10;;;;;;;;;;;;;;;18.00;62.66;103017.66;5090518;28;20418;-69
2021/10/08 11:50:51;;;;;;;;;;;;;;;18.11;61.34;103008.84;5090583;28;19973;-68
2021/10/08 11:53:19;;;;;;;;;;;;;;;18.10;58.60;103005.25;5089142;28;19986;-69
2021/10/08 11:56:13;;;;;;;;;;;;;;;18.16;59.84;103013.03;5084841;28;19977;-69
2021/10/08 11:58:41;;;;;;;;;;;;;;;18.17;58.32;103009.34;5084723;28;19969;-69
2021/10/08 12:01:19;;;;;;;;;;;;;;;18.36;61.39;103014.47;5086141;28;20376;-68
2021/10/08 12:03:51;;;;;;;;;;;;;;;18.08;60.94;102944.66;5087628;28;20000;-68
2021/10/08 12:06:21;;;;;;;;;;;;;;;18.79;61.37;103011.72;5090297;28;20362;-68
2021/10/08 12:08:49;;;;;;;;;;;;;;;18.83;57.79;103008.69;5084808;28;19998;-69
2021/10/08 12:11:20;;;;;;;;;;;;;;;18.83;57.60;103011.41;5088639;28;19976;-69
2021/10/08 12:13:50;;;;;;;;;;;;;;;19.03;57.99;103003.75;5069180;28;19968;-69
2021/10/08 12:16:19;;;;;;;;;;;;;;;19.23;59.39;103006.84;5086388;28;20081;-69
2021/10/08 12:18:51;;;;;;;;;;;;;;;19.21;56.22;103005.22;5087799;28;20063;-69
2021/10/08 12:21:27;;;;;;;;;;;;;;;19.36;58.31;103006.91;5087153;28;19972;-69
2021/10/08 12:23:57;;;;;;;;;;;;;;;19.50;58.58;103015.00;5067284;28;19973;-69
2021/10/08 12:26:27;;;;;;;;;;;;;;;19.56;57.66;103008.28;5089066;28;20026;-69
2021/10/08 12:28:55;;;;;;;;;;;;;;;19.71;57.08;103006.34;5088253;28;19983;-69
2021/10/08 12:31:43;;;;;;;;;;;;;;;19.65;56.94;103009.50;5089004;28;20295;-69
2021/10/08 12:34:11;;;;;;;;;;;;;;;19.56;53.76;103008.28;5089122;28;20087;-68
2021/10/08 12:36:39;;;;;;;;;;;;;;;19.67;55.44;103016.59;5089515;28;19969;-69
2021/10/08 12:39:09;;;;;;;;;;;;;;;19.65;55.28;103018.56;5088199;28;19986;-68
2021/10/08 12:41:44;;;;;;;;;;;;;;;19.69;52.60;103014.63;5087778;28;20424;-69
2021/10/08 12:44:16;;;;;;;;;;;;;;;19.75;53.03;103007.88;5088678;28;19999;-69
2021/10/08 12:46:44;;;;;;;;;;;;;;;19.68;53.69;103012.03;5088394;28;19993;-69
2021/10/08 12:49:13;;;;;;;;;;;;;;;19.68;52.57;103006.56;5070480;28;20426;-69
2021/10/08 12:51:45;;;;;;;;;;;;;;;19.66;51.91;103005.81;5089254;28;19968;-69
2021/10/08 12:54:17;;;;;;;;;;;;;;;19.61;52.44;103010.72;5087085;28;19969;-69
2021/10/08 12:56:47;;;;;;;;;;;;;;;19.72;52.20;102999.91;5087387;28;20007;-69
2021/10/08 12:59:15;;;;;;;;;;;;;;;19.69;51.63;103011.91;5088189;28;20642;-69
2021/10/08 13:01:55;;;;;;;;;;;;;;;19.85;52.87;102998.06;5088272;28;19969;-69